sensor_id;sensor_type;location;lat;lon;timestamp;P1;durP1;ratioP1;P2;durP2;ratioP2
17826;SDS011;9038;48.208;16.308;2022-12-07T00:01:42;11.03;;;7.80;;
17826;SDS011;9038;48.208;16.308;2022-12-07T00:03:45;8.20;;;7.40;;
17826;SDS011;9038;48.208;16.308;2022-12-07T00:05:48;8.13;;;7.30;;
17826;SDS011;9038;48.208;16.308;2022-12-07T00:07:50;8.13;;;7.33;;
17826;SDS011;9038;48.208;16.308;2022-12-07T00:09:52;7.83;;;6.83;;
17826;SDS011;9038;48.208;16.308;2022-12-07T00:11:54;8.27;;;7.40;;
17826;SDS011;9038;48.208;16.308;2022-12-07T00:13:56;8.47;;;7.60;;
17826;SDS011;9038;48.208;16.308;2022-12-07T00:16:02;9.43;;;8.03;;
17826;SDS011;9038;48.208;16.308;2022-12-07T00:18:05;7.97;;;7.17;;
17826;SDS011;9038;48.208;16.308;2022-12-07T00:20:07;8.60;;;6.93;;
17826;SDS011;9038;48.208;16.308;2022-12-07T00:22:09;8.53;;;7.40;;
17826;SDS011;9038;48.208;16.308;2022-12-07T00:24:11;8.93;;;8.03;;
17826;SDS011;9038;48.208;16.308;2022-12-07T00:26:14;8.23;;;7.43;;
17826;SDS011;9038;48.208;16.308;2022-12-07T00:28:17;9.63;;;8.63;;
17826;SDS011;9038;48.208;16.308;2022-12-07T00:30:19;9.73;;;8.17;;
17826;SDS011;9038;48.208;16.308;2022-12-07T00:32:22;9.37;;;8.37;;
17826;SDS011;9038;48.208;16.308;2022-12-07T00:34:24;9.53;;;8.47;;
17826;SDS011;9038;48.208;16.308;2022-12-07T00:36:26;8.60;;;7.70;;
17826;SDS011;9038;48.208;16.308;2022-12-07T00:38:29;9.77;;;8.77;;
17826;SDS011;9038;48.208;16.308;2022-12-07T00:40:32;10.40;;;9.27;;
17826;SDS011;9038;48.208;16.308;2022-12-07T00:42:34;10.83;;;9.73;;
17826;SDS011;9038;48.208;16.308;2022-12-07T00:44:36;10.70;;;9.60;;
17826;SDS011;9038;48.208;16.308;2022-12-07T00:46:38;11.57;;;10.00;;
17826;SDS011;9038;48.208;16.308;2022-12-07T00:48:41;10.17;;;9.07;;
17826;SDS011;9038;48.208;16.308;2022-12-07T00:50:43;11.10;;;9.83;;
17826;SDS011;9038;48.208;16.308;2022-12-07T00:52:45;12.63;;;9.77;;
17826;SDS011;9038;48.208;16.308;2022-12-07T00:54:47;11.77;;;10.13;;
17826;SDS011;9038;48.208;16.308;2022-12-07T00:56:49;12.33;;;10.37;;
17826;SDS011;9038;48.208;16.308;2022-12-07T00:58:52;11.90;;;10.03;;
17826;SDS011;9038;48.208;16.308;2022-12-07T01:00:55;11.03;;;9.93;;
17826;SDS011;9038;48.208;16.308;2022-12-07T01:03:01;12.63;;;10.70;;
17826;SDS011;9038;48.208;16.308;2022-12-07T01:05:06;13.30;;;10.87;;
17826;SDS011;9038;48.208;16.308;2022-12-07T01:07:08;12.47;;;10.80;;
17826;SDS011;9038;48.208;16.308;2022-12-07T01:09:10;12.13;;;10.73;;
17826;SDS011;9038;48.208;16.308;2022-12-07T01:11:13;14.00;;;11.10;;
17826;SDS011;9038;48.208;16.308;2022-12-07T01:13:16;13.40;;;11.47;;
17826;SDS011;9038;48.208;16.308;2022-12-07T01:15:18;12.10;;;10.80;;
17826;SDS011;9038;48.208;16.308;2022-12-07T01:17:20;13.10;;;11.07;;
17826;SDS011;9038;48.208;16.308;2022-12-07T01:19:22;12.83;;;10.80;;
17826;SDS011;9038;48.208;16.308;2022-12-07T01:21:25;13.00;;;11.20;;
17826;SDS011;9038;48.208;16.308;2022-12-07T01:23:29;12.70;;;10.50;;
17826;SDS011;9038;48.208;16.308;2022-12-07T01:25:31;12.43;;;10.93;;
17826;SDS011;9038;48.208;16.308;2022-12-07T01:27:33;14.40;;;11.57;;
17826;SDS011;9038;48.208;16.308;2022-12-07T01:29:35;14.40;;;11.90;;
17826;SDS011;9038;48.208;16.308;2022-12-07T01:31:37;15.50;;;12.07;;
17826;SDS011;9038;48.208;16.308;2022-12-07T01:33:39;12.90;;;11.07;;
17826;SDS011;9038;48.208;16.308;2022-12-07T01:35:42;16.03;;;12.87;;
17826;SDS011;9038;48.208;16.308;2022-12-07T01:37:46;12.97;;;11.00;;
17826;SDS011;9038;48.208;16.308;2022-12-07T01:39:48;14.83;;;12.53;;
17826;SDS011;9038;48.208;16.308;2022-12-07T01:41:50;14.17;;;11.50;;
17826;SDS011;9038;48.208;16.308;2022-12-07T01:46:10;14.30;;;11.53;;
17826;SDS011;9038;48.208;16.308;2022-12-07T01:48:13;14.57;;;11.80;;
17826;SDS011;9038;48.208;16.308;2022-12-07T01:50:18;17.00;;;12.23;;
17826;SDS011;9038;48.208;16.308;2022-12-07T01:52:22;13.57;;;11.67;;
17826;SDS011;9038;48.208;16.308;2022-12-07T01:54:29;16.17;;;12.43;;
17826;SDS011;9038;48.208;16.308;2022-12-07T01:56:32;15.87;;;12.20;;
17826;SDS011;9038;48.208;16.308;2022-12-07T01:58:34;15.53;;;12.33;;
17826;SDS011;9038;48.208;16.308;2022-12-07T02:00:37;15.17;;;12.33;;
17826;SDS011;9038;48.208;16.308;2022-12-07T02:02:41;14.67;;;12.30;;
17826;SDS011;9038;48.208;16.308;2022-12-07T02:04:47;14.60;;;12.43;;
17826;SDS011;9038;48.208;16.308;2022-12-07T02:06:48;14.60;;;11.47;;
17826;SDS011;9038;48.208;16.308;2022-12-07T02:08:52;15.17;;;12.17;;
17826;SDS011;9038;48.208;16.308;2022-12-07T02:10:55;15.87;;;12.33;;
17826;SDS011;9038;48.208;16.308;2022-12-07T02:12:58;15.13;;;12.70;;
17826;SDS011;9038;48.208;16.308;2022-12-07T02:15:03;15.83;;;11.67;;
17826;SDS011;9038;48.208;16.308;2022-12-07T02:17:08;14.90;;;12.20;;
17826;SDS011;9038;48.208;16.308;2022-12-07T02:19:24;15.60;;;11.77;;
17826;SDS011;9038;48.208;16.308;2022-12-07T02:22:04;11.97;;;10.60;;
17826;SDS011;9038;48.208;16.308;2022-12-07T02:24:24;12.83;;;10.70;;
17826;SDS011;9038;48.208;16.308;2022-12-07T02:26:58;15.73;;;11.90;;
17826;SDS011;9038;48.208;16.308;2022-12-07T02:29:19;13.87;;;11.00;;
17826;SDS011;9038;48.208;16.308;2022-12-07T02:31:23;14.23;;;11.40;;
17826;SDS011;9038;48.208;16.308;2022-12-07T02:33:28;12.47;;;10.70;;
17826;SDS011;9038;48.208;16.308;2022-12-07T02:35:35;13.43;;;11.27;;
17826;SDS011;9038;48.208;16.308;2022-12-07T02:37:46;13.97;;;11.20;;
17826;SDS011;9038;48.208;16.308;2022-12-07T02:39:55;14.97;;;11.87;;
17826;SDS011;9038;48.208;16.308;2022-12-07T02:42:02;12.43;;;10.83;;
17826;SDS011;9038;48.208;16.308;2022-12-07T02:44:13;14.03;;;11.33;;
17826;SDS011;9038;48.208;16.308;2022-12-07T02:46:22;12.90;;;10.97;;
17826;SDS011;9038;48.208;16.308;2022-12-07T02:48:26;12.90;;;11.27;;
17826;SDS011;9038;48.208;16.308;2022-12-07T02:50:29;12.57;;;10.80;;
17826;SDS011;9038;48.208;16.308;2022-12-07T02:52:34;13.23;;;10.90;;
17826;SDS011;9038;48.208;16.308;2022-12-07T02:54:36;14.87;;;11.30;;
17826;SDS011;9038;48.208;16.308;2022-12-07T02:56:39;14.37;;;10.73;;
17826;SDS011;9038;48.208;16.308;2022-12-07T02:58:50;14.33;;;10.73;;
17826;SDS011;9038;48.208;16.308;2022-12-07T03:01:04;14.87;;;10.97;;
17826;SDS011;9038;48.208;16.308;2022-12-07T03:03:15;12.80;;;10.60;;
17826;SDS011;9038;48.208;16.308;2022-12-07T03:05:22;12.37;;;10.50;;
17826;SDS011;9038;48.208;16.308;2022-12-07T03:07:33;15.13;;;11.43;;
17826;SDS011;9038;48.208;16.308;2022-12-07T03:09:42;14.30;;;10.53;;
17826;SDS011;9038;48.208;16.308;2022-12-07T03:11:52;13.50;;;10.47;;
17826;SDS011;9038;48.208;16.308;2022-12-07T03:14:02;14.47;;;11.03;;
17826;SDS011;9038;48.208;16.308;2022-12-07T03:16:14;14.53;;;11.27;;
17826;SDS011;9038;48.208;16.308;2022-12-07T03:18:20;14.57;;;10.63;;
17826;SDS011;9038;48.208;16.308;2022-12-07T03:20:25;12.53;;;10.23;;
17826;SDS011;9038;48.208;16.308;2022-12-07T03:22:30;15.57;;;10.93;;
17826;SDS011;9038;48.208;16.308;2022-12-07T03:24:36;12.43;;;9.70;;
17826;SDS011;9038;48.208;16.308;2022-12-07T03:26:44;15.37;;;10.67;;
17826;SDS011;9038;48.208;16.308;2022-12-07T03:28:51;13.37;;;10.37;;
17826;SDS011;9038;48.208;16.308;2022-12-07T03:30:57;13.30;;;9.80;;
17826;SDS011;9038;48.208;16.308;2022-12-07T03:33:03;13.27;;;10.43;;
17826;SDS011;9038;48.208;16.308;2022-12-07T03:35:12;11.30;;;9.90;;
17826;SDS011;9038;48.208;16.308;2022-12-07T03:37:20;12.33;;;10.03;;
17826;SDS011;9038;48.208;16.308;2022-12-07T03:39:30;12.30;;;10.73;;
17826;SDS011;9038;48.208;16.308;2022-12-07T03:41:37;13.37;;;9.83;;
17826;SDS011;9038;48.208;16.308;2022-12-07T03:43:40;12.33;;;9.17;;
17826;SDS011;9038;48.208;16.308;2022-12-07T03:45:44;12.60;;;10.07;;
17826;SDS011;9038;48.208;16.308;2022-12-07T03:47:54;14.00;;;10.40;;
17826;SDS011;9038;48.208;16.308;2022-12-07T03:50:06;11.83;;;9.73;;
17826;SDS011;9038;48.208;16.308;2022-12-07T03:52:17;12.20;;;10.10;;
17826;SDS011;9038;48.208;16.308;2022-12-07T03:54:26;13.23;;;10.30;;
17826;SDS011;9038;48.208;16.308;2022-12-07T03:56:31;11.77;;;9.73;;
17826;SDS011;9038;48.208;16.308;2022-12-07T03:58:35;13.43;;;10.13;;
17826;SDS011;9038;48.208;16.308;2022-12-07T04:00:38;11.37;;;9.23;;
17826;SDS011;9038;48.208;16.308;2022-12-07T04:02:41;11.30;;;9.53;;
17826;SDS011;9038;48.208;16.308;2022-12-07T04:04:44;10.27;;;8.80;;
17826;SDS011;9038;48.208;16.308;2022-12-07T04:06:46;11.17;;;9.17;;
17826;SDS011;9038;48.208;16.308;2022-12-07T04:08:49;10.80;;;9.00;;
17826;SDS011;9038;48.208;16.308;2022-12-07T04:10:51;10.17;;;8.33;;
17826;SDS011;9038;48.208;16.308;2022-12-07T04:12:53;9.80;;;8.33;;
17826;SDS011;9038;48.208;16.308;2022-12-07T04:14:55;10.50;;;8.87;;
17826;SDS011;9038;48.208;16.308;2022-12-07T04:16:56;11.33;;;8.93;;
17826;SDS011;9038;48.208;16.308;2022-12-07T04:18:59;10.83;;;8.70;;
17826;SDS011;9038;48.208;16.308;2022-12-07T04:21:01;9.53;;;8.23;;
17826;SDS011;9038;48.208;16.308;2022-12-07T04:23:03;9.83;;;8.73;;
17826;SDS011;9038;48.208;16.308;2022-12-07T04:25:06;9.87;;;8.30;;
17826;SDS011;9038;48.208;16.308;2022-12-07T04:27:09;10.23;;;8.63;;
17826;SDS011;9038;48.208;16.308;2022-12-07T04:29:10;11.23;;;8.87;;
17826;SDS011;9038;48.208;16.308;2022-12-07T04:31:13;11.43;;;8.80;;
17826;SDS011;9038;48.208;16.308;2022-12-07T04:33:15;10.37;;;8.43;;
17826;SDS011;9038;48.208;16.308;2022-12-07T04:35:17;10.40;;;8.73;;
17826;SDS011;9038;48.208;16.308;2022-12-07T04:37:19;10.23;;;8.73;;
17826;SDS011;9038;48.208;16.308;2022-12-07T04:39:22;10.10;;;8.57;;
17826;SDS011;9038;48.208;16.308;2022-12-07T04:41:26;10.90;;;9.00;;
17826;SDS011;9038;48.208;16.308;2022-12-07T04:43:28;12.50;;;9.30;;
17826;SDS011;9038;48.208;16.308;2022-12-07T04:45:30;10.07;;;8.73;;
17826;SDS011;9038;48.208;16.308;2022-12-07T04:47:32;9.97;;;8.40;;
17826;SDS011;9038;48.208;16.308;2022-12-07T04:49:34;9.43;;;8.17;;
17826;SDS011;9038;48.208;16.308;2022-12-07T04:51:36;9.57;;;8.30;;
17826;SDS011;9038;48.208;16.308;2022-12-07T04:53:38;10.73;;;8.53;;
17826;SDS011;9038;48.208;16.308;2022-12-07T04:55:40;9.50;;;8.10;;
17826;SDS011;9038;48.208;16.308;2022-12-07T04:57:43;9.07;;;8.10;;
17826;SDS011;9038;48.208;16.308;2022-12-07T04:59:45;10.07;;;8.57;;
17826;SDS011;9038;48.208;16.308;2022-12-07T05:01:47;11.97;;;8.80;;
17826;SDS011;9038;48.208;16.308;2022-12-07T05:03:49;10.03;;;8.13;;
17826;SDS011;9038;48.208;16.308;2022-12-07T05:05:51;10.87;;;8.60;;
17826;SDS011;9038;48.208;16.308;2022-12-07T05:07:53;11.10;;;8.23;;
17826;SDS011;9038;48.208;16.308;2022-12-07T05:09:55;10.33;;;8.50;;
17826;SDS011;9038;48.208;16.308;2022-12-07T05:11:57;10.57;;;7.93;;
17826;SDS011;9038;48.208;16.308;2022-12-07T05:14:00;8.77;;;7.37;;
17826;SDS011;9038;48.208;16.308;2022-12-07T05:16:03;10.33;;;7.93;;
17826;SDS011;9038;48.208;16.308;2022-12-07T05:18:05;10.20;;;8.13;;
17826;SDS011;9038;48.208;16.308;2022-12-07T05:20:07;9.87;;;7.30;;
17826;SDS011;9038;48.208;16.308;2022-12-07T05:22:10;8.80;;;7.33;;
17826;SDS011;9038;48.208;16.308;2022-12-07T05:24:13;9.13;;;7.77;;
17826;SDS011;9038;48.208;16.308;2022-12-07T05:26:18;8.80;;;7.33;;
17826;SDS011;9038;48.208;16.308;2022-12-07T05:28:20;9.40;;;8.00;;
17826;SDS011;9038;48.208;16.308;2022-12-07T05:30:23;8.17;;;7.13;;
17826;SDS011;9038;48.208;16.308;2022-12-07T05:32:26;8.20;;;6.77;;
17826;SDS011;9038;48.208;16.308;2022-12-07T05:34:28;10.00;;;7.60;;
17826;SDS011;9038;48.208;16.308;2022-12-07T05:36:29;8.43;;;7.07;;
17826;SDS011;9038;48.208;16.308;2022-12-07T05:38:32;10.10;;;7.10;;
17826;SDS011;9038;48.208;16.308;2022-12-07T05:40:34;8.33;;;7.17;;
17826;SDS011;9038;48.208;16.308;2022-12-07T05:42:37;7.83;;;6.77;;
17826;SDS011;9038;48.208;16.308;2022-12-07T05:44:39;9.77;;;6.63;;
17826;SDS011;9038;48.208;16.308;2022-12-07T05:46:43;6.70;;;6.00;;
17826;SDS011;9038;48.208;16.308;2022-12-07T05:48:45;8.07;;;6.53;;
17826;SDS011;9038;48.208;16.308;2022-12-07T05:50:47;10.53;;;5.77;;
17826;SDS011;9038;48.208;16.308;2022-12-07T05:52:49;9.27;;;6.53;;
17826;SDS011;9038;48.208;16.308;2022-12-07T05:54:51;6.77;;;6.07;;
17826;SDS011;9038;48.208;16.308;2022-12-07T05:56:53;7.27;;;6.13;;
17826;SDS011;9038;48.208;16.308;2022-12-07T05:58:55;7.20;;;6.30;;
17826;SDS011;9038;48.208;16.308;2022-12-07T06:01:14;6.63;;;5.83;;
17826;SDS011;9038;48.208;16.308;2022-12-07T06:03:17;8.03;;;6.13;;
17826;SDS011;9038;48.208;16.308;2022-12-07T06:05:19;8.07;;;6.83;;
17826;SDS011;9038;48.208;16.308;2022-12-07T06:07:21;8.53;;;6.83;;
17826;SDS011;9038;48.208;16.308;2022-12-07T06:09:23;8.33;;;6.13;;
17826;SDS011;9038;48.208;16.308;2022-12-07T06:11:26;7.73;;;5.83;;
17826;SDS011;9038;48.208;16.308;2022-12-07T06:13:46;7.20;;;6.30;;
17826;SDS011;9038;48.208;16.308;2022-12-07T06:15:48;7.23;;;5.90;;
17826;SDS011;9038;48.208;16.308;2022-12-07T06:17:50;7.03;;;6.03;;
17826;SDS011;9038;48.208;16.308;2022-12-07T06:19:53;7.37;;;5.77;;
17826;SDS011;9038;48.208;16.308;2022-12-07T06:21:55;8.33;;;6.73;;
17826;SDS011;9038;48.208;16.308;2022-12-07T06:23:57;7.17;;;6.43;;
17826;SDS011;9038;48.208;16.308;2022-12-07T06:25:59;6.90;;;5.97;;
17826;SDS011;9038;48.208;16.308;2022-12-07T06:28:01;8.33;;;6.13;;
17826;SDS011;9038;48.208;16.308;2022-12-07T06:30:03;9.87;;;6.33;;
17826;SDS011;9038;48.208;16.308;2022-12-07T06:32:08;7.53;;;6.00;;
17826;SDS011;9038;48.208;16.308;2022-12-07T06:34:11;10.23;;;6.63;;
17826;SDS011;9038;48.208;16.308;2022-12-07T06:36:16;8.30;;;6.07;;
17826;SDS011;9038;48.208;16.308;2022-12-07T06:38:18;8.20;;;6.00;;
17826;SDS011;9038;48.208;16.308;2022-12-07T06:40:19;10.43;;;7.03;;
17826;SDS011;9038;48.208;16.308;2022-12-07T06:42:21;8.00;;;5.93;;
17826;SDS011;9038;48.208;16.308;2022-12-07T06:44:23;7.67;;;6.40;;
17826;SDS011;9038;48.208;16.308;2022-12-07T06:46:26;8.93;;;6.13;;
17826;SDS011;9038;48.208;16.308;2022-12-07T06:48:28;5.93;;;5.33;;
17826;SDS011;9038;48.208;16.308;2022-12-07T06:50:30;6.87;;;5.67;;
17826;SDS011;9038;48.208;16.308;2022-12-07T06:52:33;8.10;;;5.80;;
17826;SDS011;9038;48.208;16.308;2022-12-07T06:54:35;6.50;;;5.87;;
17826;SDS011;9038;48.208;16.308;2022-12-07T06:56:37;7.47;;;5.70;;
17826;SDS011;9038;48.208;16.308;2022-12-07T06:58:39;8.97;;;6.60;;
17826;SDS011;9038;48.208;16.308;2022-12-07T07:00:41;9.00;;;5.93;;
17826;SDS011;9038;48.208;16.308;2022-12-07T07:02:43;7.37;;;6.03;;
17826;SDS011;9038;48.208;16.308;2022-12-07T07:04:45;13.27;;;6.70;;
17826;SDS011;9038;48.208;16.308;2022-12-07T07:06:47;6.00;;;5.23;;
17826;SDS011;9038;48.208;16.308;2022-12-07T07:08:50;7.63;;;5.43;;
17826;SDS011;9038;48.208;16.308;2022-12-07T07:10:52;7.77;;;5.83;;
17826;SDS011;9038;48.208;16.308;2022-12-07T07:12:54;6.93;;;5.23;;
17826;SDS011;9038;48.208;16.308;2022-12-07T07:14:56;6.47;;;5.50;;
17826;SDS011;9038;48.208;16.308;2022-12-07T07:16:58;6.10;;;5.50;;
17826;SDS011;9038;48.208;16.308;2022-12-07T07:19:00;7.17;;;5.40;;
17826;SDS011;9038;48.208;16.308;2022-12-07T07:21:02;6.30;;;5.53;;
17826;SDS011;9038;48.208;16.308;2022-12-07T07:23:04;6.50;;;5.50;;
17826;SDS011;9038;48.208;16.308;2022-12-07T07:25:08;8.23;;;5.60;;
17826;SDS011;9038;48.208;16.308;2022-12-07T07:27:10;7.33;;;5.73;;
17826;SDS011;9038;48.208;16.308;2022-12-07T07:29:12;6.30;;;5.40;;
17826;SDS011;9038;48.208;16.308;2022-12-07T07:31:14;7.27;;;5.60;;
17826;SDS011;9038;48.208;16.308;2022-12-07T07:33:16;8.47;;;5.63;;
17826;SDS011;9038;48.208;16.308;2022-12-07T07:35:18;9.83;;;5.93;;
17826;SDS011;9038;48.208;16.308;2022-12-07T07:37:20;6.33;;;5.57;;
17826;SDS011;9038;48.208;16.308;2022-12-07T07:39:22;7.17;;;5.50;;
17826;SDS011;9038;48.208;16.308;2022-12-07T07:41:25;10.43;;;5.90;;
17826;SDS011;9038;48.208;16.308;2022-12-07T07:43:27;11.40;;;6.43;;
17826;SDS011;9038;48.208;16.308;2022-12-07T07:45:29;8.20;;;5.73;;
17826;SDS011;9038;48.208;16.308;2022-12-07T07:47:31;5.10;;;4.60;;
17826;SDS011;9038;48.208;16.308;2022-12-07T07:49:33;6.53;;;5.27;;
17826;SDS011;9038;48.208;16.308;2022-12-07T07:51:35;7.03;;;5.60;;
17826;SDS011;9038;48.208;16.308;2022-12-07T07:53:37;6.37;;;5.17;;
17826;SDS011;9038;48.208;16.308;2022-12-07T07:55:38;6.00;;;5.40;;
17826;SDS011;9038;48.208;16.308;2022-12-07T07:57:42;7.13;;;4.97;;
17826;SDS011;9038;48.208;16.308;2022-12-07T07:59:44;6.17;;;5.33;;
17826;SDS011;9038;48.208;16.308;2022-12-07T08:01:46;8.83;;;5.37;;
17826;SDS011;9038;48.208;16.308;2022-12-07T08:03:48;5.40;;;4.90;;
17826;SDS011;9038;48.208;16.308;2022-12-07T08:05:50;6.53;;;5.47;;
17826;SDS011;9038;48.208;16.308;2022-12-07T08:07:52;6.27;;;5.60;;
17826;SDS011;9038;48.208;16.308;2022-12-07T08:09:54;6.37;;;5.77;;
17826;SDS011;9038;48.208;16.308;2022-12-07T08:11:56;5.87;;;5.27;;
17826;SDS011;9038;48.208;16.308;2022-12-07T08:14:00;6.07;;;5.30;;
17826;SDS011;9038;48.208;16.308;2022-12-07T08:16:03;6.70;;;5.63;;
17826;SDS011;9038;48.208;16.308;2022-12-07T08:18:06;6.40;;;5.73;;
17826;SDS011;9038;48.208;16.308;2022-12-07T08:20:09;6.20;;;5.60;;
17826;SDS011;9038;48.208;16.308;2022-12-07T08:22:11;5.93;;;5.33;;
17826;SDS011;9038;48.208;16.308;2022-12-07T08:24:13;7.47;;;5.63;;
17826;SDS011;9038;48.208;16.308;2022-12-07T08:26:15;6.90;;;5.73;;
17826;SDS011;9038;48.208;16.308;2022-12-07T08:28:18;5.60;;;5.00;;
17826;SDS011;9038;48.208;16.308;2022-12-07T08:30:21;5.97;;;5.37;;
17826;SDS011;9038;48.208;16.308;2022-12-07T08:32:24;10.63;;;8.00;;
17826;SDS011;9038;48.208;16.308;2022-12-07T08:34:25;6.07;;;4.90;;
17826;SDS011;9038;48.208;16.308;2022-12-07T08:36:27;9.17;;;5.40;;
17826;SDS011;9038;48.208;16.308;2022-12-07T08:38:29;6.80;;;5.63;;
17826;SDS011;9038;48.208;16.308;2022-12-07T08:40:31;6.00;;;5.30;;
17826;SDS011;9038;48.208;16.308;2022-12-07T08:42:33;5.50;;;4.90;;
17826;SDS011;9038;48.208;16.308;2022-12-07T08:44:40;5.30;;;4.80;;
17826;SDS011;9038;48.208;16.308;2022-12-07T08:46:44;5.00;;;4.60;;
17826;SDS011;9038;48.208;16.308;2022-12-07T08:48:49;5.50;;;5.00;;
17826;SDS011;9038;48.208;16.308;2022-12-07T08:50:56;6.00;;;4.67;;
17826;SDS011;9038;48.208;16.308;2022-12-07T08:52:58;6.07;;;5.03;;
17826;SDS011;9038;48.208;16.308;2022-12-07T08:55:01;5.20;;;4.73;;
17826;SDS011;9038;48.208;16.308;2022-12-07T08:57:04;5.70;;;5.10;;
17826;SDS011;9038;48.208;16.308;2022-12-07T08:59:07;5.27;;;4.73;;
17826;SDS011;9038;48.208;16.308;2022-12-07T09:01:09;5.90;;;5.10;;
17826;SDS011;9038;48.208;16.308;2022-12-07T09:03:13;5.50;;;4.90;;
17826;SDS011;9038;48.208;16.308;2022-12-07T09:05:15;4.93;;;4.47;;
17826;SDS011;9038;48.208;16.308;2022-12-07T09:07:17;5.70;;;5.10;;
17826;SDS011;9038;48.208;16.308;2022-12-07T09:09:19;5.53;;;4.87;;
17826;SDS011;9038;48.208;16.308;2022-12-07T09:11:20;5.17;;;4.67;;
17826;SDS011;9038;48.208;16.308;2022-12-07T09:13:22;5.30;;;4.80;;
17826;SDS011;9038;48.208;16.308;2022-12-07T09:15:24;6.37;;;5.57;;
17826;SDS011;9038;48.208;16.308;2022-12-07T09:17:27;5.13;;;4.63;;
17826;SDS011;9038;48.208;16.308;2022-12-07T09:19:34;6.53;;;4.87;;
17826;SDS011;9038;48.208;16.308;2022-12-07T09:21:36;5.60;;;5.10;;
17826;SDS011;9038;48.208;16.308;2022-12-07T09:23:38;5.67;;;5.17;;
17826;SDS011;9038;48.208;16.308;2022-12-07T09:25:40;6.00;;;4.97;;
17826;SDS011;9038;48.208;16.308;2022-12-07T09:27:42;5.70;;;5.20;;
17826;SDS011;9038;48.208;16.308;2022-12-07T09:29:44;5.50;;;5.00;;
17826;SDS011;9038;48.208;16.308;2022-12-07T09:31:45;5.80;;;5.20;;
17826;SDS011;9038;48.208;16.308;2022-12-07T09:33:53;5.60;;;5.10;;
17826;SDS011;9038;48.208;16.308;2022-12-07T09:35:57;6.80;;;5.20;;
17826;SDS011;9038;48.208;16.308;2022-12-07T09:37:59;6.23;;;5.30;;
17826;SDS011;9038;48.208;16.308;2022-12-07T09:40:01;5.53;;;5.03;;
17826;SDS011;9038;48.208;16.308;2022-12-07T09:42:03;5.97;;;5.37;;
17826;SDS011;9038;48.208;16.308;2022-12-07T09:44:09;5.97;;;5.40;;
17826;SDS011;9038;48.208;16.308;2022-12-07T09:46:14;6.70;;;6.00;;
17826;SDS011;9038;48.208;16.308;2022-12-07T09:48:18;7.27;;;6.57;;
17826;SDS011;9038;48.208;16.308;2022-12-07T09:50:23;5.93;;;5.33;;
17826;SDS011;9038;48.208;16.308;2022-12-07T09:52:28;6.43;;;5.83;;
17826;SDS011;9038;48.208;16.308;2022-12-07T09:54:30;7.70;;;5.67;;
17826;SDS011;9038;48.208;16.308;2022-12-07T09:56:36;6.03;;;5.43;;
17826;SDS011;9038;48.208;16.308;2022-12-07T09:58:38;6.30;;;5.70;;
17826;SDS011;9038;48.208;16.308;2022-12-07T10:00:40;6.43;;;5.83;;
17826;SDS011;9038;48.208;16.308;2022-12-07T10:02:43;6.50;;;5.60;;
17826;SDS011;9038;48.208;16.308;2022-12-07T10:04:46;7.13;;;6.43;;
17826;SDS011;9038;48.208;16.308;2022-12-07T10:06:48;7.00;;;6.10;;
17826;SDS011;9038;48.208;16.308;2022-12-07T10:08:52;6.20;;;5.60;;
17826;SDS011;9038;48.208;16.308;2022-12-07T10:10:55;6.50;;;5.50;;
17826;SDS011;9038;48.208;16.308;2022-12-07T10:12:59;6.67;;;5.90;;
17826;SDS011;9038;48.208;16.308;2022-12-07T10:15:03;6.47;;;5.33;;
17826;SDS011;9038;48.208;16.308;2022-12-07T10:19:30;6.90;;;5.10;;
17826;SDS011;9038;48.208;16.308;2022-12-07T10:21:34;5.97;;;5.37;;
17826;SDS011;9038;48.208;16.308;2022-12-07T10:23:36;5.43;;;4.93;;
17826;SDS011;9038;48.208;16.308;2022-12-07T10:25:40;5.97;;;4.87;;
17826;SDS011;9038;48.208;16.308;2022-12-07T10:27:42;7.17;;;4.57;;
17826;SDS011;9038;48.208;16.308;2022-12-07T10:29:46;5.47;;;4.60;;
17826;SDS011;9038;48.208;16.308;2022-12-07T10:31:52;5.47;;;4.63;;
17826;SDS011;9038;48.208;16.308;2022-12-07T10:33:58;5.00;;;4.50;;
17826;SDS011;9038;48.208;16.308;2022-12-07T10:36:15;4.43;;;4.03;;
17826;SDS011;9038;48.208;16.308;2022-12-07T10:38:18;4.97;;;4.53;;
17826;SDS011;9038;48.208;16.308;2022-12-07T10:40:29;8.60;;;4.57;;
17826;SDS011;9038;48.208;16.308;2022-12-07T10:42:34;5.30;;;4.80;;
17826;SDS011;9038;48.208;16.308;2022-12-07T10:44:36;5.90;;;5.23;;
17826;SDS011;9038;48.208;16.308;2022-12-07T10:46:45;4.60;;;4.17;;
17826;SDS011;9038;48.208;16.308;2022-12-07T10:49:14;6.83;;;6.00;;
17826;SDS011;9038;48.208;16.308;2022-12-07T10:51:36;6.47;;;5.53;;
17826;SDS011;9038;48.208;16.308;2022-12-07T10:53:48;6.20;;;5.33;;
17826;SDS011;9038;48.208;16.308;2022-12-07T10:56:07;6.27;;;5.67;;
17826;SDS011;9038;48.208;16.308;2022-12-07T10:58:27;6.50;;;5.90;;
17826;SDS011;9038;48.208;16.308;2022-12-07T11:00:39;5.70;;;5.10;;
17826;SDS011;9038;48.208;16.308;2022-12-07T11:02:54;5.47;;;4.97;;
17826;SDS011;9038;48.208;16.308;2022-12-07T11:05:18;5.43;;;4.93;;
17826;SDS011;9038;48.208;16.308;2022-12-07T11:07:28;5.17;;;4.67;;
17826;SDS011;9038;48.208;16.308;2022-12-07T11:09:47;5.33;;;4.83;;
17826;SDS011;9038;48.208;16.308;2022-12-07T11:11:59;6.37;;;4.90;;
17826;SDS011;9038;48.208;16.308;2022-12-07T11:14:13;5.17;;;4.67;;
17826;SDS011;9038;48.208;16.308;2022-12-07T11:16:29;5.13;;;4.63;;
17826;SDS011;9038;48.208;16.308;2022-12-07T11:18:41;5.23;;;4.73;;
17826;SDS011;9038;48.208;16.308;2022-12-07T11:20:53;5.70;;;5.10;;
17826;SDS011;9038;48.208;16.308;2022-12-07T11:23:06;5.50;;;4.83;;
17826;SDS011;9038;48.208;16.308;2022-12-07T11:25:19;5.33;;;4.80;;
17826;SDS011;9038;48.208;16.308;2022-12-07T11:27:32;8.80;;;4.87;;
17826;SDS011;9038;48.208;16.308;2022-12-07T11:29:49;6.10;;;4.37;;
17826;SDS011;9038;48.208;16.308;2022-12-07T11:32:04;5.20;;;4.70;;
17826;SDS011;9038;48.208;16.308;2022-12-07T11:34:14;5.00;;;4.50;;
17826;SDS011;9038;48.208;16.308;2022-12-07T11:36:31;4.70;;;4.30;;
17826;SDS011;9038;48.208;16.308;2022-12-07T11:38:41;4.70;;;4.20;;
17826;SDS011;9038;48.208;16.308;2022-12-07T11:40:47;4.43;;;4.03;;
17826;SDS011;9038;48.208;16.308;2022-12-07T11:42:51;5.27;;;4.77;;
17826;SDS011;9038;48.208;16.308;2022-12-07T11:44:59;4.67;;;3.73;;
17826;SDS011;9038;48.208;16.308;2022-12-07T11:47:12;6.20;;;4.73;;
17826;SDS011;9038;48.208;16.308;2022-12-07T11:49:21;5.50;;;4.27;;
17826;SDS011;9038;48.208;16.308;2022-12-07T11:51:36;4.27;;;3.87;;
17826;SDS011;9038;48.208;16.308;2022-12-07T11:53:41;5.33;;;4.47;;
17826;SDS011;9038;48.208;16.308;2022-12-07T11:55:48;6.93;;;4.67;;
17826;SDS011;9038;48.208;16.308;2022-12-07T11:57:54;5.03;;;4.53;;
17826;SDS011;9038;48.208;16.308;2022-12-07T12:00:11;4.40;;;4.00;;
17826;SDS011;9038;48.208;16.308;2022-12-07T12:02:18;5.07;;;4.17;;
17826;SDS011;9038;48.208;16.308;2022-12-07T12:04:27;5.00;;;4.60;;
17826;SDS011;9038;48.208;16.308;2022-12-07T12:06:33;5.40;;;4.37;;
17826;SDS011;9038;48.208;16.308;2022-12-07T12:08:37;4.80;;;4.33;;
17826;SDS011;9038;48.208;16.308;2022-12-07T12:10:48;4.80;;;4.30;;
17826;SDS011;9038;48.208;16.308;2022-12-07T12:15:41;5.93;;;4.60;;
17826;SDS011;9038;48.208;16.308;2022-12-07T12:18:10;4.13;;;3.83;;
17826;SDS011;9038;48.208;16.308;2022-12-07T12:20:26;5.90;;;4.60;;
17826;SDS011;9038;48.208;16.308;2022-12-07T12:22:33;6.57;;;5.67;;
17826;SDS011;9038;48.208;16.308;2022-12-07T12:24:38;6.37;;;4.67;;
17826;SDS011;9038;48.208;16.308;2022-12-07T12:26:48;5.43;;;4.60;;
17826;SDS011;9038;48.208;16.308;2022-12-07T12:28:53;6.57;;;5.83;;
17826;SDS011;9038;48.208;16.308;2022-12-07T12:31:08;5.87;;;4.80;;
17826;SDS011;9038;48.208;16.308;2022-12-07T12:33:14;6.53;;;4.80;;
17826;SDS011;9038;48.208;16.308;2022-12-07T12:35:27;5.13;;;4.60;;